| time (UTC) | temp F | wind direction | speed knots | gust knots | rain 1hr in | rain 24hr in | rain mn in | humidity % | barometer mb |
| 20260831054018 | 67 | 154 | 2.6 | 4.3 | 0.00 | 0.00 | 0.00 | 62 | 1029.6 |
| 20260831053035 | 66 | 136 | 1.7 | 5.2 | 0.00 | 0.00 | 0.00 | 62 | 1029.6 |
| 20260831052031 | 68 | 138 | 2.6 | 6.1 | 0.00 | 0.00 | 0.00 | 60 | 1029.5 |
| 20260831051027 | 69 | 145 | 2.6 | 6.1 | 0.00 | 0.00 | 0.00 | 59 | 1029.6 |
| 20260831050044 | 68 | 137 | 1.7 | 5.2 | 0.00 | 0.00 | 0.00 | 60 | 1029.7 |
| 20260831045020 | 69 | 130 | 2.6 | 5.2 | 0.00 | 0.00 | 0.00 | 59 | 1029.6 |
| 20260831044117 | 68 | 173 | 2.6 | 5.2 | 0.00 | 0.00 | 0.00 | 61 | 1029.7 |
| 20260831043032 | 69 | 169 | 1.7 | 4.3 | 0.00 | 0.00 | 0.00 | 60 | 1029.8 |
| 20260831042029 | 68 | 290 | 1.7 | 2.6 | 0.00 | 0.00 | 0.00 | 60 | 1029.9 |
| 20260831041025 | 69 | 131 | 1.7 | 3.5 | 0.00 | 0.00 | 0.00 | 59 | 1029.9 |
| 20260831040021 | 68 | 177 | 0.9 | 4.3 | 0.00 | 0.00 | 0.00 | 60 | 1030.0 |
| 20260831035018 | 68 | 177 | 2.6 | 7.0 | 0.00 | 0.00 | 0.00 | 60 | 1030.0 |
| 20260831034034 | 67 | 229 | 1.7 | 3.5 | 0.00 | 0.00 | 0.00 | 61 | 1030.3 |
| 20260831033111 | 66 | 213 | 1.7 | 5.2 | 0.00 | 0.00 | 0.00 | 59 | 1030.1 |
| 20260831032047 | 67 | 214 | 2.6 | 5.2 | 0.00 | 0.00 | 0.00 | 59 | 1030.3 |
| 20260831031023 | 67 | 225 | 1.7 | 3.5 | 0.00 | 0.00 | 0.00 | 61 | 1030.4 |
| 20260831030020 | 66 | 299 | 1.7 | 3.5 | 0.00 | 0.00 | 0.00 | 59 | 1030.7 |
| 20260831025036 | 68 | 283 | 1.7 | 5.2 | 0.00 | 0.00 | 0.00 | 56 | 1030.7 |
| 20260831024032 | 67 | 33 | 0.9 | 3.5 | 0.00 | 0.00 | 0.00 | 57 | 1030.9 |
| 20260831023029 | 67 | 140 | 2.6 | 5.2 | 0.00 | 0.00 | 0.00 | 57 | 1031.1 |
| 20260831022025 | 66 | 106 | 3.5 | 7.0 | 0.00 | 0.00 | 0.00 | 57 | 1031.2 |
| 20260831021041 | 65 | 280 | 1.7 | 5.2 | 0.00 | 0.00 | 0.00 | 58 | 1031.4 |
| 20260831020017 | 66 | 182 | 1.7 | 4.3 | 0.00 | 0.00 | 0.00 | 56 | 1031.5 |
| 20260831015033 | 65 | 273 | 1.7 | 4.3 | 0.00 | 0.00 | 0.00 | 56 | 1031.6 |
| 20260831014030 | 65 | 143 | 1.7 | 4.3 | 0.00 | 0.00 | 0.00 | 55 | 1031.7 |
| 20260831013026 | 65 | 192 | 1.7 | 3.5 | 0.00 | 0.00 | 0.00 | 58 | 1031.7 |
| 20260831012023 | 66 | 169 | 1.7 | 3.5 | 0.00 | 0.00 | 0.00 | 58 | 1031.9 |
| 20260831011019 | 66 | 198 | 0.9 | 3.5 | 0.00 | 0.00 | 0.00 | 61 | 1032.0 |
| 20260831010035 | 66 | 132 | 3.5 | 8.7 | 0.00 | 0.00 | 0.00 | 62 | 1032.0 |
| 20260831005031 | 65 | 105 | 1.7 | 4.3 | 0.00 | 0.00 | 0.00 | 64 | 1032.1 |
| 20260831004108 | 65 | 146 | 1.7 | 3.5 | 0.00 | 0.00 | 0.00 | 65 | 1032.0 |
| 20260831003044 | 65 | 118 | 1.7 | 5.2 | 0.00 | 0.00 | 0.00 | 66 | 1032.1 |
| 20260831002020 | 65 | 104 | 2.6 | 6.1 | 0.00 | 0.00 | 0.00 | 68 | 1032.0 |
| 20260831001037 | 64 | 78 | 1.7 | 2.6 | 0.00 | 0.00 | 0.00 | 72 | 1032.1 |
| 20260830235029 | 62 | 105 | 1.7 | 3.5 | 0.00 | 0.00 | 0.00 | 87 | 1032.2 |
| 20260830234025 | 61 | 117 | 1.7 | 3.5 | 0.00 | 0.00 | 0.00 | 93 | 1032.1 |
| 20260830233021 | 60 | 102 | 1.7 | 3.5 | 0.00 | 0.00 | 0.00 | 97 | 1032.2 |
| 20260830232038 | 59 | 102 | 1.7 | 2.6 | 0.00 | 0.00 | 0.00 | 99 | 1032.3 |
| 20260830231115 | 57 | 89 | 1.7 | 2.6 | 0.00 | 0.00 | 0.00 | 99 | 1032.3 |
| 20260830230030 | 57 | 59 | 0.0 | 1.7 | 0.00 | 0.00 | 0.00 | 99 | 1032.3 |
| 20260830225026 | 54 | 47 | 0.0 | 1.7 | 0.00 | 0.00 | 0.00 | 99 | 1032.4 |
| 20260830224023 | 50 | 61 | 1.7 | 2.6 | 0.00 | 0.00 | 0.00 | 99 | 1032.4 |
| 20260830223019 | 47 | 57 | 1.7 | 1.7 | 0.00 | 0.00 | 0.00 | 99 | 1032.4 |
| 20260830222056 | 47 | 59 | 1.7 | 1.7 | 0.00 | 0.00 | 0.00 | 99 | 1032.3 |
| 20260830221032 | 46 | 57 | 1.7 | 3.5 | 0.00 | 0.00 | 0.00 | 99 | 1032.3 |
| 20260830220048 | 44 | 23 | 0.9 | 1.7 | 0.00 | 0.00 | 0.00 | 99 | 1032.3 |
| 20260830215023 | 42 | 44 | 1.7 | 1.7 | 0.00 | 0.00 | 0.00 | 99 | 1032.3 |
| 20260830214020 | 41 | 48 | 1.7 | 2.6 | 0.00 | 0.00 | 0.00 | 99 | 1032.2 |
| 20260830213037 | 40 | 53 | 1.7 | 2.6 | 0.00 | 0.00 | 0.00 | 99 | 1032.1 |
| 20260830212032 | 38 | 40 | 1.7 | 2.6 | 0.00 | 0.00 | 0.00 | 99 | 1032.1 |
| 20260830211029 | 37 | 51 | 1.7 | 2.6 | 0.00 | 0.00 | 0.00 | 99 | 1032.1 |
| 20260830210025 | 37 | 39 | 2.6 | 3.5 | 0.00 | 0.00 | 0.00 | 99 | 1031.9 |
| 20260830205101 | 36 | 38 | 1.7 | 2.6 | 0.00 | 0.00 | 0.00 | 99 | 1031.9 |
| 20260830204017 | 36 | 39 | 1.7 | 1.7 | 0.00 | 0.00 | 0.00 | 99 | 1031.8 |
| 20260830203034 | 36 | 29 | 1.7 | 2.6 | 0.00 | 0.00 | 0.00 | 99 | 1031.6 |
| 20260830202031 | 36 | 48 | 1.7 | 2.6 | 0.00 | 0.00 | 0.00 | 99 | 1031.5 |
| 20260830201027 | 36 | 43 | 1.7 | 2.6 | 0.00 | 0.00 | 0.00 | 99 | 1031.3 |
| 20260830200023 | 36 | 39 | 1.7 | 2.6 | 0.00 | 0.00 | 0.00 | 99 | 1031.2 |
| 20260830195019 | 35 | 39 | 1.7 | 2.6 | 0.00 | 0.00 | 0.00 | 99 | 1031.1 |
| 20260830194035 | 36 | 51 | 1.7 | 2.6 | 0.00 | 0.00 | 0.00 | 99 | 1031.0 |
| 20260830193032 | 36 | 44 | 1.7 | 3.5 | 0.00 | 0.00 | 0.00 | 99 | 1030.8 |
| 20260830192029 | 37 | 41 | 2.6 | 3.5 | 0.00 | 0.00 | 0.00 | 99 | 1030.7 |
| 20260830191024 | 37 | 45 | 2.6 | 2.6 | 0.00 | 0.00 | 0.00 | 99 | 1030.6 |
| 20260830190020 | 37 | 49 | 1.7 | 2.6 | 0.00 | 0.00 | 0.00 | 99 | 1030.5 |
| 20260830185057 | 37 | 47 | 1.7 | 2.6 | 0.00 | 0.00 | 0.00 | 99 | 1030.4 |
| 20260830184033 | 37 | 37 | 1.7 | 1.7 | 0.00 | 0.00 | 0.00 | 99 | 1030.5 |
| 20260830183029 | 37 | 32 | 1.7 | 1.7 | 0.00 | 0.00 | 0.00 | 99 | 1030.2 |
| 20260830182026 | 37 | 46 | 1.7 | 1.7 | 0.00 | 0.00 | 0.00 | 99 | 1030.3 |
| 20260830181043 | 38 | 32 | 1.7 | 2.6 | 0.00 | 0.00 | 0.00 | 99 | 1030.1 |
| 20260830180018 | 38 | 33 | 1.7 | 2.6 | 0.00 | 0.00 | 0.00 | 99 | 1030.3 |
| 20260830175055 | 38 | 51 | 1.7 | 2.6 | 0.00 | 0.00 | 0.00 | 99 | 1030.3 |
| 20260830174030 | 37 | 39 | 1.7 | 1.7 | 0.00 | 0.00 | 0.00 | 99 | 1030.3 |
| 20260830173026 | 37 | 44 | 1.7 | 2.6 | 0.00 | 0.00 | 0.00 | 99 | 1030.4 |
| 20260830172023 | 38 | 44 | 1.7 | 2.6 | 0.00 | 0.00 | 0.00 | 99 | 1030.5 |
| 20260830171020 | 38 | 43 | 1.7 | 1.7 | 0.00 | 0.00 | 0.00 | 99 | 1030.6 |
| 20260830170035 | 38 | 35 | 1.7 | 2.6 | 0.00 | 0.00 | 0.00 | 99 | 1030.6 |
| 20260830165031 | 38 | 52 | 1.7 | 2.6 | 0.00 | 0.00 | 0.00 | 99 | 1030.5 |
| 20260830164028 | 38 | 51 | 1.7 | 1.7 | 0.00 | 0.00 | 0.00 | 99 | 1030.5 |
| 20260830163024 | 38 | 34 | 1.7 | 2.6 | 0.00 | 0.00 | 0.00 | 99 | 1030.6 |
| 20260830162020 | 39 | 52 | 1.7 | 2.6 | 0.00 | 0.00 | 0.00 | 99 | 1030.6 |
| 20260830161017 | 39 | 46 | 1.7 | 1.7 | 0.00 | 0.00 | 0.00 | 99 | 1030.6 |
| 20260830160033 | 39 | 30 | 1.7 | 2.6 | 0.00 | 0.00 | 0.00 | 99 | 1030.8 |
| 20260830155029 | 39 | 37 | 1.7 | 2.6 | 0.00 | 0.00 | 0.00 | 99 | 1030.9 |
| 20260830154026 | 39 | 44 | 1.7 | 1.7 | 0.00 | 0.00 | 0.00 | 99 | 1030.9 |
| 20260830153022 | 39 | 55 | 1.7 | 3.5 | 0.00 | 0.00 | 0.00 | 99 | 1030.9 |
| 20260830152018 | 40 | 39 | 1.7 | 2.6 | 0.00 | 0.00 | 0.00 | 99 | 1031.0 |
| 20260830151034 | 40 | 33 | 1.7 | 2.6 | 0.00 | 0.00 | 0.00 | 99 | 1031.0 |
| 20260830150031 | 41 | 35 | 1.7 | 2.6 | 0.00 | 0.00 | 0.00 | 99 | 1030.9 |
| 20260830145047 | 41 | 43 | 1.7 | 2.6 | 0.00 | 0.00 | 0.00 | 99 | 1030.8 |
| 20260830144023 | 41 | 50 | 1.7 | 2.6 | 0.00 | 0.00 | 0.00 | 99 | 1030.9 |
| 20260830143019 | 41 | 61 | 1.7 | 1.7 | 0.00 | 0.00 | 0.00 | 99 | 1031.0 |
| 20260830142056 | 40 | 38 | 1.7 | 1.7 | 0.00 | 0.00 | 0.00 | 99 | 1031.0 |
| 20260830141032 | 40 | 41 | 0.9 | 1.7 | 0.00 | 0.00 | 0.00 | 99 | 1031.0 |
| 20260830140028 | 41 | 60 | 1.7 | 2.6 | 0.00 | 0.00 | 0.00 | 99 | 1031.1 |
| 20260830135044 | 41 | 26 | 1.7 | 2.6 | 0.00 | 0.00 | 0.00 | 99 | 1031.2 |
| 20260830134021 | 41 | 41 | 1.7 | 2.6 | 0.00 | 0.00 | 0.00 | 99 | 1031.2 |
| 20260830133037 | 42 | 51 | 1.7 | 2.6 | 0.00 | 0.00 | 0.00 | 99 | 1031.3 |
| 20260830132034 | 42 | 52 | 1.7 | 2.6 | 0.00 | 0.00 | 0.00 | 99 | 1031.4 |
| 20260830131029 | 42 | 42 | 0.9 | 1.7 | 0.00 | 0.00 | 0.00 | 99 | 1031.5 |
| 20260830130026 | 42 | 50 | 0.9 | 2.6 | 0.00 | 0.00 | 0.00 | 99 | 1031.3 |
| 20260830125042 | 42 | 27 | 0.9 | 2.6 | 0.00 | 0.00 | 0.00 | 99 | 1031.2 |
| 20260830124018 | 42 | 81 | 0.9 | 2.6 | 0.00 | 0.00 | 0.00 | 99 | 1031.4 |
| 20260830123035 | 42 | 45 | 2.6 | 3.5 | 0.00 | 0.00 | 0.00 | 99 | 1031.4 |
| 20260830122030 | 43 | 50 | 0.9 | 1.7 | 0.00 | 0.00 | 0.00 | 99 | 1031.4 |
| 20260830121027 | 44 | 41 | 1.7 | 3.5 | 0.00 | 0.00 | 0.00 | 99 | 1031.4 |
| 20260830120024 | 43 | 50 | 0.9 | 2.6 | 0.00 | 0.00 | 0.00 | 99 | 1031.5 |
| 20260830115020 | 44 | 48 | 1.7 | 2.6 | 0.00 | 0.00 | 0.00 | 99 | 1031.5 |
| 20260830114037 | 44 | 62 | 1.7 | 1.7 | 0.00 | 0.00 | 0.00 | 99 | 1031.5 |
| 20260830113032 | 44 | 61 | 1.7 | 1.7 | 0.00 | 0.00 | 0.00 | 99 | 1031.3 |
| 20260830112029 | 44 | 49 | 0.9 | 1.7 | 0.00 | 0.00 | 0.00 | 99 | 1031.4 |
| 20260830111025 | 44 | 64 | 1.7 | 1.7 | 0.00 | 0.00 | 0.00 | 99 | 1031.4 |
| 20260830110041 | 44 | 54 | 1.7 | 2.6 | 0.00 | 0.00 | 0.00 | 99 | 1031.2 |
| 20260830105039 | 45 | 57 | 0.9 | 1.7 | 0.00 | 0.00 | 0.00 | 99 | 1031.2 |
| 20260830104034 | 46 | 69 | 0.9 | 1.7 | 0.00 | 0.00 | 0.00 | 99 | 1031.2 |
| 20260830103030 | 46 | 62 | 1.7 | 1.7 | 0.00 | 0.00 | 0.00 | 99 | 1031.2 |
| 20260830102107 | 46 | 62 | 0.9 | 1.7 | 0.00 | 0.00 | 0.00 | 99 | 1031.1 |
| 20260830101023 | 46 | 68 | 0.9 | 1.7 | 0.00 | 0.00 | 0.00 | 99 | 1031.1 |
| 20260830100019 | 46 | 69 | 0.9 | 1.7 | 0.00 | 0.00 | 0.00 | 98 | 1031.0 |
| 20260830095035 | 47 | 59 | 1.7 | 2.6 | 0.00 | 0.00 | 0.00 | 98 | 1031.0 |
| 20260830094031 | 47 | 33 | 0.9 | 1.7 | 0.00 | 0.00 | 0.00 | 97 | 1030.8 |
| 20260830093028 | 47 | 59 | 0.9 | 1.7 | 0.00 | 0.00 | 0.00 | 97 | 1030.7 |
| 20260830092024 | 48 | 65 | 0.9 | 1.7 | 0.00 | 0.00 | 0.00 | 96 | 1030.5 |
| 20260830091020 | 49 | 48 | 0.9 | 1.7 | 0.00 | 0.00 | 0.00 | 96 | 1030.6 |
| 20260830090057 | 49 | 79 | 1.7 | 2.6 | 0.00 | 0.00 | 0.00 | 95 | 1030.5 |
| 20260830085033 | 50 | 78 | 0.0 | 0.9 | 0.00 | 0.00 | 0.00 | 94 | 1030.4 |
| 20260830084029 | 50 | 81 | 0.9 | 1.7 | 0.00 | 0.00 | 0.00 | 93 | 1030.3 |
| 20260830083026 | 51 | 90 | 0.9 | 1.7 | 0.00 | 0.00 | 0.00 | 92 | 1030.1 |
| 20260830082022 | 52 | 72 | 0.0 | 0.9 | 0.00 | 0.00 | 0.00 | 91 | 1030.0 |
| 20260830081019 | 53 | 79 | 0.9 | 1.7 | 0.00 | 0.00 | 0.00 | 90 | 1029.9 |
| 20260830080035 | 53 | 84 | 1.7 | 1.7 | 0.00 | 0.00 | 0.00 | 88 | 1029.9 |
| 20260830075030 | 54 | 137 | 0.0 | 0.9 | 0.00 | 0.00 | 0.00 | 86 | 1029.7 |
| 20260830074027 | 55 | 84 | 1.7 | 2.6 | 0.00 | 0.00 | 0.00 | 84 | 1029.7 |
| 20260830073024 | 57 | 85 | 0.9 | 1.7 | 0.00 | 0.00 | 0.00 | 82 | 1029.6 |
| 20260830072019 | 59 | 101 | 0.9 | 1.7 | 0.00 | 0.00 | 0.00 | 77 | 1029.6 |
| 20260830071056 | 59 | 120 | 0.9 | 1.7 | 0.00 | 0.00 | 0.00 | 75 | 1029.5 |
| 20260830070052 | 60 | 122 | 1.7 | 3.5 | 0.00 | 0.00 | 0.00 | 74 | 1029.5 |
| 20260830065028 | 61 | 131 | 0.9 | 4.3 | 0.00 | 0.00 | 0.00 | 71 | 1029.6 |
| 20260830064024 | 62 | 128 | 0.9 | 2.6 | 0.00 | 0.00 | 0.00 | 70 | 1029.5 |
| 20260830063020 | 62 | 158 | 1.7 | 3.5 | 0.00 | 0.00 | 0.00 | 68 | 1029.5 |
| 20260830062037 | 63 | 138 | 1.7 | 3.5 | 0.00 | 0.00 | 0.00 | 67 | 1029.6 |
| 20260830061033 | 64 | 161 | 1.7 | 4.3 | 0.00 | 0.00 | 0.00 | 66 | 1029.5 |
| 20260830060030 | 64 | 138 | 1.7 | 3.5 | 0.00 | 0.00 | 0.00 | 64 | 1029.4 |
| 20260830055026 | 66 | 158 | 1.7 | 4.3 | 0.00 | 0.00 | 0.00 | 62 | 1029.5 |